Time;durP1;ratioP1;P1;durP2;ratioP2;P2;SDS_P1;SDS_P2;PMS_P1;PMS_P2;Temp;Humidity;BMP_temperature;BMP_pressure;BME280_temperature;BME280_humidity;BME280_pressure;Samples;Min_cycle;Max_cycle;Signal;HPM_P1;HPM_P2
2022/06/26 00:02:18;;;;;;;7.38;5.45;;;20.00;99.90;;;;;;5058590;28;20127;-50
2022/06/26 00:04:44;;;;;;;6.70;4.35;;;19.90;99.90;;;;;;5061296;28;20499;-48
2022/06/26 00:07:10;;;;;;;11.07;6.72;;;19.80;99.90;;;;;;5059888;28;20056;-48
2022/06/26 00:09:35;;;;;;;11.32;6.22;;;19.70;99.90;;;;;;5060805;28;20491;-47
2022/06/26 00:12:01;;;;;;;9.90;6.95;;;19.60;99.90;;;;;;5058664;28;20106;-47
2022/06/26 00:14:27;;;;;;;10.13;7.60;;;19.50;99.90;;;;;;5059638;28;20054;-51
2022/06/26 00:16:53;;;;;;;10.93;7.60;;;19.30;99.90;;;;;;5061205;28;20033;-46
2022/06/26 00:19:18;;;;;;;11.65;7.85;;;19.20;99.90;;;;;;5061925;28;20037;-50
2022/06/26 00:21:44;;;;;;;11.98;7.72;;;19.10;99.90;;;;;;5054656;28;20064;-48
2022/06/26 00:24:11;;;;;;;15.32;8.55;;;19.00;99.90;;;;;;5048392;28;20041;-47
2022/06/26 00:26:36;;;;;;;12.75;7.70;;;19.10;99.90;;;;;;5048315;28;20045;-47
2022/06/26 00:29:02;;;;;;;9.70;6.80;;;19.00;99.90;;;;;;5054703;28;20059;-44
2022/06/26 00:31:28;;;;;;;12.57;6.82;;;18.90;99.90;;;;;;5050740;28;20045;-46
2022/06/26 00:33:53;;;;;;;10.52;6.28;;;19.00;99.90;;;;;;5043241;28;20470;-44
2022/06/26 00:36:19;;;;;;;8.65;6.20;;;19.00;99.90;;;;;;5048482;28;20402;-49
2022/06/26 00:38:45;;;;;;;11.85;6.72;;;19.00;99.90;;;;;;5052917;28;20338;-47
2022/06/26 00:41:10;;;;;;;13.55;7.80;;;19.00;99.90;;;;;;5044796;28;20041;-48
2022/06/26 00:43:36;;;;;;;10.63;6.10;;;19.10;99.90;;;;;;5049815;28;20044;-50
2022/06/26 00:46:04;;;;;;;9.45;4.97;;;19.10;99.90;;;;;;5042330;28;20041;-44
2022/06/26 00:48:30;;;;;;;7.40;3.08;;;19.10;99.90;;;;;;5054754;28;20124;-48
2022/06/26 00:50:56;;;;;;;11.55;2.97;;;19.10;99.90;;;;;;5054427;28;20119;-48
2022/06/26 00:53:22;;;;;;;6.97;3.15;;;19.10;99.90;;;;;;5051763;28;20685;-45
2022/06/26 00:55:48;;;;;;;10.00;3.67;;;19.10;99.90;;;;;;5049505;28;20044;-47
2022/06/26 00:58:15;;;;;;;8.25;3.88;;;19.10;99.90;;;;;;5050533;28;20045;-45
2022/06/26 01:00:41;;;;;;;8.38;4.32;;;19.10;99.90;;;;;;5050504;28;20127;-48
2022/06/26 01:03:08;;;;;;;8.60;4.10;;;19.10;99.90;;;;;;5050384;28;20044;-46
2022/06/26 01:05:33;;;;;;;9.75;3.67;;;19.10;99.90;;;;;;5046693;28;20044;-45
2022/06/26 01:07:59;;;;;;;13.40;5.28;;;19.10;99.90;;;;;;5050673;28;20129;-47
2022/06/26 01:10:25;;;;;;;7.88;4.55;;;19.10;99.90;;;;;;5046208;28;20098;-45
2022/06/26 01:12:51;;;;;;;7.10;4.80;;;19.10;99.90;;;;;;5049543;28;20045;-45
2022/06/26 01:15:18;;;;;;;8.00;3.65;;;19.10;99.90;;;;;;5046389;28;20049;-48
2022/06/26 01:17:44;;;;;;;9.68;4.72;;;19.10;99.90;;;;;;5049399;28;20037;-50
2022/06/26 01:20:10;;;;;;;6.32;3.95;;;19.00;99.90;;;;;;5049099;28;20103;-45
2022/06/26 01:22:36;;;;;;;6.50;4.43;;;19.00;99.90;;;;;;5047316;28;20033;-48
2022/06/26 01:25:02;;;;;;;10.27;5.25;;;18.90;99.90;;;;;;5048954;28;20056;-48
2022/06/26 01:27:28;;;;;;;7.30;4.50;;;18.80;99.90;;;;;;5050671;28;20056;-48
2022/06/26 01:29:54;;;;;;;8.52;4.35;;;18.80;99.90;;;;;;5050940;28;20036;-44
2022/06/26 01:32:20;;;;;;;6.15;4.18;;;18.80;99.90;;;;;;5047490;28;20470;-44
2022/06/26 01:34:46;;;;;;;7.63;3.45;;;18.80;99.90;;;;;;5052888;28;20032;-49
2022/06/26 01:37:11;;;;;;;6.78;3.22;;;18.70;99.90;;;;;;5045745;28;20045;-49
2022/06/26 01:39:37;;;;;;;7.10;3.85;;;18.70;99.90;;;;;;5050670;28;20120;-45
2022/06/26 01:42:03;;;;;;;8.75;3.60;;;18.70;99.90;;;;;;5046485;28;20064;-46
2022/06/26 01:44:28;;;;;;;8.30;3.78;;;18.70;99.90;;;;;;5045677;28;20055;-46
2022/06/26 01:46:54;;;;;;;7.03;3.58;;;18.70;99.90;;;;;;5047172;28;21306;-47
2022/06/26 01:49:23;;;;;;;5.75;3.05;;;18.70;99.90;;;;;;5048043;28;20369;-50
2022/06/26 01:51:48;;;;;;;4.80;2.85;;;18.60;99.90;;;;;;5050414;28;20091;-48
2022/06/26 01:54:16;;;;;;;7.22;3.63;;;18.70;99.90;;;;;;5045132;28;20072;-48
2022/06/26 01:56:42;;;;;;;6.78;2.53;;;18.60;99.90;;;;;;5046009;28;20548;-48
2022/06/26 01:59:08;;;;;;;5.10;2.72;;;18.60;99.90;;;;;;5053820;28;20082;-47
2022/06/26 02:01:34;;;;;;;4.47;2.03;;;18.50;99.90;;;;;;5041928;28;20033;-49
2022/06/26 02:04:00;;;;;;;5.30;1.90;;;18.50;99.90;;;;;;5046196;28;20441;-46
2022/06/26 02:06:25;;;;;;;2.65;1.48;;;18.40;99.90;;;;;;5045040;28;20058;-46
2022/06/26 02:08:51;;;;;;;3.55;1.70;;;18.40;99.90;;;;;;5047265;28;20090;-47
2022/06/26 02:14:01;;;;;;;3.35;1.30;;;18.30;99.90;;;;;;5047477;28;20037;-47
2022/06/26 02:16:27;;;;;;;3.30;1.10;;;18.30;99.90;;;;;;5050934;28;20112;-50
2022/06/26 02:18:57;;;;;;;1.88;1.00;;;18.20;99.90;;;;;;5050190;28;20060;-48
2022/06/26 02:21:27;;;;;;;2.13;0.98;;;18.20;99.90;;;;;;5046692;28;20402;-48
2022/06/26 02:23:54;;;;;;;2.13;1.17;;;18.20;99.90;;;;;;5042340;28;20033;-50
2022/06/26 02:26:21;;;;;;;2.33;1.10;;;18.20;99.90;;;;;;5044574;28;20106;-47
2022/06/26 02:28:48;;;;;;;2.80;1.20;;;18.20;99.90;;;;;;5045074;28;20029;-49
2022/06/26 02:31:14;;;;;;;3.15;1.30;;;18.10;99.90;;;;;;5044575;28;20171;-45
2022/06/26 02:33:39;;;;;;;2.83;1.40;;;18.10;99.90;;;;;;5049449;28;20033;-48
2022/06/26 02:36:07;;;;;;;1.73;1.20;;;18.00;99.90;;;;;;5046931;28;20485;-44
2022/06/26 02:38:34;;;;;;;2.95;1.55;;;18.00;99.90;;;;;;5038684;28;20494;-48
2022/06/26 02:41:00;;;;;;;2.38;1.30;;;17.90;99.90;;;;;;5041848;28;20049;-43
2022/06/26 02:43:26;;;;;;;3.22;1.50;;;17.90;99.90;;;;;;5041622;28;20048;-48
2022/06/26 02:45:53;;;;;;;2.90;1.38;;;17.90;99.90;;;;;;5048017;28;20446;-49
2022/06/26 02:48:20;;;;;;;3.22;2.22;;;17.90;99.90;;;;;;5044393;28;20045;-46
2022/06/26 02:50:47;;;;;;;2.75;1.75;;;17.80;99.90;;;;;;5048696;28;20045;-45
2022/06/26 02:53:13;;;;;;;2.40;1.48;;;17.80;99.90;;;;;;5046810;28;20512;-46
2022/06/26 02:55:39;;;;;;;1.95;1.30;;;17.70;99.90;;;;;;5046262;28;20351;-46
2022/06/26 02:58:04;;;;;;;3.72;1.67;;;17.70;99.90;;;;;;5044203;28;20053;-46
2022/06/26 03:00:30;;;;;;;5.38;2.05;;;17.70;99.90;;;;;;5046484;28;20454;-47
2022/06/26 03:02:56;;;;;;;2.88;1.52;;;17.60;99.90;;;;;;5047895;28;20414;-45
2022/06/26 03:05:22;;;;;;;2.28;1.55;;;17.60;99.90;;;;;;5040867;28;20037;-46
2022/06/26 03:07:48;;;;;;;2.13;1.40;;;17.60;99.90;;;;;;5046795;28;20427;-44
2022/06/26 03:10:13;;;;;;;2.08;1.23;;;17.50;99.90;;;;;;5045623;28;20512;-47
2022/06/26 03:12:46;;;;;;;4.18;1.77;;;17.50;99.90;;;;;;5043487;28;20529;-45
2022/06/26 03:15:13;;;;;;;4.40;1.42;;;17.40;99.90;;;;;;5043065;28;20045;-44
2022/06/26 03:17:39;;;;;;;3.00;1.63;;;17.40;99.90;;;;;;5044831;28;20055;-45
2022/06/26 03:20:17;;;;;;;2.03;1.23;;;17.40;99.90;;;;;;5043945;28;20078;-45
2022/06/26 03:22:43;;;;;;;2.97;1.45;;;17.30;99.90;;;;;;5042253;28;20067;-44
2022/06/26 03:25:09;;;;;;;1.95;1.40;;;17.30;99.90;;;;;;5037927;28;20052;-47
2022/06/26 03:27:36;;;;;;;2.05;1.15;;;17.30;99.90;;;;;;5044281;28;20219;-45
2022/06/26 03:30:06;;;;;;;2.67;1.48;;;17.20;99.90;;;;;;5046152;28;20048;-44
2022/06/26 03:32:32;;;;;;;2.50;1.48;;;17.20;99.90;;;;;;5041572;28;20032;-49
2022/06/26 03:34:57;;;;;;;3.20;1.60;;;17.20;99.90;;;;;;5045951;28;20036;-48
2022/06/26 03:37:23;;;;;;;3.22;1.58;;;17.20;99.90;;;;;;5044922;28;20615;-48
2022/06/26 03:39:49;;;;;;;3.05;1.48;;;17.20;99.90;;;;;;5047883;28;20120;-48
2022/06/26 03:42:14;;;;;;;2.42;1.33;;;17.20;99.90;;;;;;5047883;28;20559;-46
2022/06/26 03:44:40;;;;;;;2.58;1.20;;;17.30;99.90;;;;;;5049410;28;20036;-44
2022/06/26 03:47:06;;;;;;;1.33;0.95;;;17.30;99.90;;;;;;5046327;28;20056;-45
2022/06/26 03:49:31;;;;;;;2.78;1.13;;;17.40;99.90;;;;;;5044359;28;20045;-47
2022/06/26 03:51:57;;;;;;;2.35;1.25;;;17.40;99.90;;;;;;5048763;28;20046;-47
2022/06/26 03:54:25;;;;;;;1.77;1.27;;;17.40;99.90;;;;;;5044157;28;20107;-44
2022/06/26 03:56:51;;;;;;;3.55;1.70;;;17.30;99.90;;;;;;5048470;28;20082;-47
2022/06/26 03:59:17;;;;;;;2.55;1.75;;;17.30;99.90;;;;;;5046416;28;20568;-45
2022/06/26 04:01:42;;;;;;;3.17;1.70;;;17.30;99.90;;;;;;5046762;28;20131;-46
2022/06/26 04:04:08;;;;;;;4.03;2.50;;;17.30;99.90;;;;;;5050840;28;20413;-49
2022/06/26 04:06:34;;;;;;;5.25;3.15;;;17.20;99.90;;;;;;5050927;28;20402;-46
2022/06/26 04:08:59;;;;;;;4.80;3.08;;;17.30;99.90;;;;;;5051630;28;20361;-48
2022/06/26 04:11:25;;;;;;;4.50;3.10;;;17.30;99.90;;;;;;5046718;28;20084;-46
2022/06/26 04:13:51;;;;;;;5.97;3.42;;;17.30;99.90;;;;;;5047864;28;20041;-45
2022/06/26 04:16:18;;;;;;;6.57;3.63;;;17.40;99.90;;;;;;5029207;28;20227;-46
2022/06/26 04:18:44;;;;;;;5.60;4.18;;;17.40;99.90;;;;;;5054528;28;20362;-46
2022/06/26 04:21:10;;;;;;;5.05;3.63;;;17.40;99.90;;;;;;5048559;28;20412;-47
2022/06/26 04:23:36;;;;;;;6.93;4.28;;;17.50;99.90;;;;;;5050425;28;20123;-46
2022/06/26 04:26:01;;;;;;;6.05;4.25;;;17.40;99.90;;;;;;5048367;28;20041;-44
2022/06/26 04:28:27;;;;;;;6.68;4.40;;;17.50;99.90;;;;;;5054237;28;20555;-46
2022/06/26 04:30:53;;;;;;;7.38;4.63;;;17.50;99.90;;;;;;5050871;28;20124;-49
2022/06/26 04:33:18;;;;;;;6.45;4.43;;;17.50;99.90;;;;;;5045214;28;20076;-47
2022/06/26 04:35:44;;;;;;;8.93;4.35;;;17.60;99.90;;;;;;5044407;28;20403;-45
2022/06/26 04:38:09;;;;;;;5.50;3.47;;;17.60;99.90;;;;;;5048061;28;20164;-45
2022/06/26 04:40:35;;;;;;;6.90;4.47;;;17.60;99.90;;;;;;5054080;28;20037;-47
2022/06/26 04:43:01;;;;;;;6.45;4.10;;;17.60;99.90;;;;;;5049711;28;20413;-44
2022/06/26 04:45:27;;;;;;;8.70;6.20;;;17.60;99.90;;;;;;5054738;28;20075;-48
2022/06/26 04:47:52;;;;;;;8.18;5.72;;;17.60;99.90;;;;;;5052480;28;20033;-46
2022/06/26 04:50:18;;;;;;;8.93;6.45;;;17.60;99.90;;;;;;5045928;28;20036;-45
2022/06/26 04:52:47;;;;;;;6.70;5.10;;;17.60;99.90;;;;;;5043985;28;20120;-44
2022/06/26 04:55:14;;;;;;;8.48;5.05;;;17.60;99.90;;;;;;5044777;28;20124;-48
2022/06/26 04:57:39;;;;;;;7.75;5.47;;;17.60;99.90;;;;;;5047171;28;20498;-45
2022/06/26 05:00:13;;;;;;;7.93;5.38;;;17.70;99.90;;;;;;5048703;28;20036;-47
2022/06/26 05:02:39;;;;;;;7.75;5.50;;;17.70;99.90;;;;;;5044091;28;20045;-44
2022/06/26 05:05:06;;;;;;;8.55;6.68;;;17.70;99.90;;;;;;5046942;28;20060;-44
2022/06/26 05:07:32;;;;;;;8.15;6.32;;;17.70;99.90;;;;;;5047321;28;20091;-47
2022/06/26 05:09:58;;;;;;;9.82;7.13;;;17.70;99.90;;;;;;5050883;28;20077;-46
2022/06/26 05:12:24;;;;;;;9.63;7.32;;;17.60;99.90;;;;;;5042522;28;20529;-48
2022/06/26 05:14:49;;;;;;;10.25;7.60;;;17.50;99.90;;;;;;5045992;28;20036;-48
2022/06/26 05:17:15;;;;;;;9.07;6.80;;;17.50;99.90;;;;;;5046847;28;20409;-46
2022/06/26 05:19:41;;;;;;;10.27;7.38;;;17.50;99.90;;;;;;5048500;28;20037;-46
2022/06/26 05:22:06;;;;;;;9.75;7.18;;;17.50;99.90;;;;;;5047784;28;20044;-48
2022/06/26 05:24:32;;;;;;;10.77;8.63;;;17.50;99.90;;;;;;5043903;28;20037;-46
2022/06/26 05:26:58;;;;;;;10.77;8.02;;;17.50;99.90;;;;;;5047487;28;20441;-46
2022/06/26 05:29:25;;;;;;;8.50;6.47;;;17.50;99.90;;;;;;5040209;28;20041;-44
2022/06/26 05:31:51;;;;;;;9.85;8.18;;;17.50;99.90;;;;;;5048427;28;20039;-49
2022/06/26 05:34:17;;;;;;;12.52;9.43;;;17.60;99.90;;;;;;5044059;28;20044;-44
2022/06/26 05:36:43;;;;;;;11.88;9.00;;;17.60;99.90;;;;;;5047273;28;20343;-49
2022/06/26 05:39:09;;;;;;;13.60;9.23;;;17.60;99.90;;;;;;5051058;28;20044;-47
2022/06/26 05:41:35;;;;;;;12.77;8.90;;;17.70;99.90;;;;;;5047130;28;20037;-44
2022/06/26 05:44:00;;;;;;;12.07;8.68;;;17.80;99.90;;;;;;5046676;28;20037;-48
2022/06/26 05:46:26;;;;;;;9.82;7.72;;;17.80;99.90;;;;;;5051444;28;20033;-44
2022/06/26 05:48:52;;;;;;;13.05;8.27;;;17.90;99.90;;;;;;5048415;28;20036;-46
2022/06/26 05:51:18;;;;;;;12.07;8.48;;;17.80;99.90;;;;;;5044724;28;20033;-48
2022/06/26 05:53:43;;;;;;;13.63;8.88;;;17.80;99.90;;;;;;5049448;28;20032;-48
2022/06/26 05:56:09;;;;;;;9.73;8.32;;;17.70;99.90;;;;;;5047698;28;20063;-46
2022/06/26 05:58:35;;;;;;;10.63;7.72;;;17.70;99.90;;;;;;5047562;28;20074;-45
2022/06/26 06:01:01;;;;;;;12.63;8.85;;;17.60;99.90;;;;;;5045293;28;20128;-46
2022/06/26 06:03:26;;;;;;;11.65;8.02;;;17.50;99.90;;;;;;5039050;28;20094;-44
2022/06/26 06:05:52;;;;;;;10.70;7.65;;;17.30;99.90;;;;;;5044903;28;20052;-46
2022/06/26 06:08:18;;;;;;;16.63;9.10;;;17.30;99.90;;;;;;5042069;28;20048;-45
2022/06/26 06:10:43;;;;;;;12.77;8.32;;;17.30;99.90;;;;;;5043885;28;20052;-49
2022/06/26 06:13:09;;;;;;;13.98;8.13;;;17.30;99.90;;;;;;5043977;28;20107;-44
2022/06/26 06:15:35;;;;;;;12.23;9.82;;;17.30;99.90;;;;;;5041375;28;20033;-44
2022/06/26 06:18:00;;;;;;;12.90;8.90;;;17.30;99.90;;;;;;5042978;28;20143;-47
2022/06/26 06:20:26;;;;;;;13.55;8.95;;;17.30;99.90;;;;;;5048389;28;20536;-45
2022/06/26 06:23:03;;;;;;;11.52;7.60;;;17.30;99.90;;;;;;5046113;28;20405;-48
2022/06/26 06:25:29;;;;;;;15.60;9.10;;;17.30;99.90;;;;;;5048949;28;20504;-45
2022/06/26 06:27:55;;;;;;;13.35;8.93;;;17.30;99.90;;;;;;5049119;28;20430;-49
2022/06/26 06:30:20;;;;;;;14.95;8.43;;;17.30;99.90;;;;;;5046725;28;20121;-46
2022/06/26 06:32:46;;;;;;;13.32;9.02;;;17.40;99.90;;;;;;5041462;28;20040;-49
2022/06/26 06:35:13;;;;;;;12.13;7.20;;;17.40;99.90;;;;;;5044219;28;20033;-44
2022/06/26 06:37:44;;;;;;;15.02;8.20;;;17.40;99.90;;;;;;5040293;28;20037;-48
2022/06/26 06:40:12;;;;;;;14.40;8.68;;;17.50;99.90;;;;;;5042604;28;20047;-47
2022/06/26 06:42:38;;;;;;;11.48;7.55;;;17.60;99.90;;;;;;5043866;28;20043;-47
2022/06/26 06:45:04;;;;;;;14.27;8.27;;;17.60;99.90;;;;;;5046980;28;20095;-45
2022/06/26 06:47:30;;;;;;;16.00;9.40;;;17.60;99.90;;;;;;5048915;28;20044;-47
2022/06/26 06:49:56;;;;;;;14.88;8.60;;;17.70;99.90;;;;;;5047491;28;20040;-45
2022/06/26 06:52:21;;;;;;;10.02;7.47;;;17.90;99.90;;;;;;5038857;28;20628;-47
2022/06/26 06:54:47;;;;;;;15.55;9.73;;;18.10;99.90;;;;;;5047028;28;20520;-48
2022/06/26 06:57:13;;;;;;;11.38;8.45;;;18.20;99.90;;;;;;5044207;28;20037;-45
2022/06/26 06:59:38;;;;;;;13.00;9.15;;;18.30;99.90;;;;;;5046860;28;20370;-46
2022/06/26 07:02:04;;;;;;;11.85;8.43;;;18.40;99.90;;;;;;5046020;28;20068;-47
2022/06/26 07:04:30;;;;;;;13.15;9.55;;;18.50;99.90;;;;;;5044319;28;20111;-46
2022/06/26 07:06:55;;;;;;;13.25;8.73;;;18.40;99.90;;;;;;5046110;28;20048;-49
2022/06/26 07:09:21;;;;;;;11.48;8.25;;;18.40;99.90;;;;;;5041221;28;20061;-47
2022/06/26 07:11:47;;;;;;;11.68;8.75;;;18.50;99.90;;;;;;5042429;28;20462;-48
2022/06/26 07:14:13;;;;;;;12.48;8.63;;;18.50;99.90;;;;;;5044523;28;20049;-46
2022/06/26 07:16:39;;;;;;;11.95;8.43;;;18.50;99.90;;;;;;5045091;28;20370;-46
2022/06/26 07:19:04;;;;;;;13.25;9.00;;;18.60;99.90;;;;;;5046945;28;20048;-47
2022/06/26 07:21:30;;;;;;;11.95;7.80;;;18.70;99.90;;;;;;5041660;28;20041;-48
2022/06/26 07:23:56;;;;;;;6.75;3.83;;;18.80;99.90;;;;;;5040256;28;20045;-48
2022/06/26 07:26:22;;;;;;;6.70;4.82;;;19.00;99.90;;;;;;5040013;28;20041;-47
2022/06/26 07:28:48;;;;;;;10.38;6.47;;;19.20;99.90;;;;;;5040172;28;20105;-46
2022/06/26 07:31:14;;;;;;;8.85;5.50;;;19.40;99.90;;;;;;5045721;28;20071;-47
2022/06/26 07:36:24;;;;;;;8.73;7.50;;;19.90;99.90;;;;;;5043773;28;20712;-45
2022/06/26 07:38:50;;;;;;;7.95;4.25;;;20.00;99.90;;;;;;5042974;28;20124;-44
2022/06/26 07:41:15;;;;;;;6.53;4.45;;;20.00;99.90;;;;;;5050779;28;20150;-47
2022/06/26 07:43:41;;;;;;;6.95;5.60;;;20.00;99.90;;;;;;5046166;28;20052;-50
2022/06/26 07:46:07;;;;;;;9.23;5.38;;;20.00;99.90;;;;;;5048687;28;20040;-44
2022/06/26 07:48:33;;;;;;;8.32;5.47;;;20.00;99.90;;;;;;5046084;28;20039;-47
2022/06/26 07:50:59;;;;;;;6.93;4.68;;;20.20;99.90;;;;;;5052349;28;20037;-43
2022/06/26 07:53:25;;;;;;;6.82;5.28;;;20.20;99.90;;;;;;5045763;28;20448;-48
2022/06/26 07:55:51;;;;;;;4.38;3.35;;;20.20;99.90;;;;;;5043506;28;20052;-45
2022/06/26 07:58:16;;;;;;;6.72;3.97;;;20.10;99.90;;;;;;5038505;28;20048;-48
2022/06/26 08:00:42;;;;;;;4.05;3.03;;;20.10;99.90;;;;;;5047156;28;20095;-47
2022/06/26 08:03:10;;;;;;;6.07;3.90;;;20.00;99.90;;;;;;5041510;28;20103;-48
2022/06/26 08:05:37;;;;;;;4.93;3.90;;;20.20;99.90;;;;;;5048181;28;20402;-47
2022/06/26 08:08:04;;;;;;;6.00;3.90;;;20.40;99.90;;;;;;5051986;28;20418;-46
2022/06/26 08:10:30;;;;;;;6.43;4.65;;;20.40;99.90;;;;;;5044034;28;20666;-48
2022/06/26 08:12:56;;;;;;;4.75;3.65;;;20.50;99.90;;;;;;5048680;28;20046;-49
2022/06/26 08:15:22;;;;;;;4.47;2.30;;;20.40;99.90;;;;;;5056839;28;20049;-44
2022/06/26 08:17:48;;;;;;;4.65;2.38;;;20.30;99.90;;;;;;5045906;28;20048;-48
2022/06/26 08:20:14;;;;;;;3.45;1.75;;;20.30;99.90;;;;;;5044116;28;20036;-48
2022/06/26 08:22:40;;;;;;;4.40;2.08;;;20.30;99.60;;;;;;5048593;28;20506;-46
2022/06/26 08:25:06;;;;;;;4.32;1.90;;;20.30;99.60;;;;;;5043852;28;20079;-48
2022/06/26 08:27:32;;;;;;;6.03;2.33;;;20.30;98.80;;;;;;5039981;28;20041;-43
2022/06/26 08:29:58;;;;;;;5.78;2.47;;;20.30;98.00;;;;;;5043689;28;20052;-46
2022/06/26 08:32:24;;;;;;;4.65;2.28;;;20.30;97.40;;;;;;5050284;28;20041;-47
2022/06/26 08:34:50;;;;;;;8.13;2.80;;;20.30;97.70;;;;;;5040615;28;20033;-50
2022/06/26 08:37:16;;;;;;;4.30;2.30;;;20.30;98.00;;;;;;5047348;28;20358;-46
2022/06/26 08:39:43;;;;;;;2.13;1.42;;;20.50;98.00;;;;;;5057758;28;20037;-48
2022/06/26 08:42:10;;;;;;;5.32;2.10;;;20.60;97.90;;;;;;5043978;28;20367;-48
2022/06/26 08:44:41;;;;;;;13.27;2.22;;;20.80;97.70;;;;;;5050664;28;20067;-48
2022/06/26 08:47:08;;;;;;;3.85;1.70;;;21.00;97.60;;;;;;5039564;28;20057;-49
2022/06/26 08:49:35;;;;;;;5.88;2.22;;;21.10;96.70;;;;;;5041365;28;20110;-49
2022/06/26 08:52:01;;;;;;;3.72;1.67;;;21.10;96.30;;;;;;5043897;28;20087;-46
2022/06/26 08:54:30;;;;;;;3.92;1.58;;;21.10;96.10;;;;;;5048753;28;20478;-45
2022/06/26 08:56:57;;;;;;;4.00;2.10;;;21.20;95.40;;;;;;5038034;28;20029;-46
2022/06/26 08:59:22;;;;;;;3.63;1.58;;;21.30;95.50;;;;;;5030697;28;20549;-47
2022/06/26 09:01:48;;;;;;;3.20;1.40;;;21.40;95.60;;;;;;5046300;28;20033;-49
2022/06/26 09:04:14;;;;;;;4.13;1.70;;;21.50;95.00;;;;;;5042137;28;20095;-45
2022/06/26 09:06:42;;;;;;;3.35;1.73;;;21.70;93.70;;;;;;5049220;28;20075;-45
2022/06/26 09:09:15;;;;;;;3.08;1.50;;;21.70;93.20;;;;;;5046979;28;20044;-45
2022/06/26 09:11:40;;;;;;;4.43;1.45;;;21.70;92.80;;;;;;5036016;28;20252;-45
2022/06/26 09:14:06;;;;;;;3.53;1.90;;;21.70;92.00;;;;;;5040404;28;20036;-45
2022/06/26 09:16:32;;;;;;;3.90;1.92;;;21.70;91.50;;;;;;5043597;28;20520;-44
2022/06/26 09:19:13;;;;;;;4.22;1.60;;;21.90;90.30;;;;;;5041326;28;20087;-45
2022/06/26 09:21:40;;;;;;;2.85;1.92;;;22.00;87.50;;;;;;5044309;28;20463;-48
2022/06/26 09:24:10;;;;;;;5.15;1.77;;;22.00;90.80;;;;;;5043356;28;20045;-46
2022/06/26 09:26:36;;;;;;;2.60;1.48;;;22.10;90.80;;;;;;5046368;28;20094;-47
2022/06/26 09:29:20;;;;;;;5.03;1.85;;;22.00;90.50;;;;;;5045093;28;20044;-44
2022/06/26 09:31:46;;;;;;;5.82;1.88;;;21.90;87.50;;;;;;5044627;28;20402;-47
2022/06/26 09:34:24;;;;;;;3.42;1.73;;;21.80;90.40;;;;;;5047136;28;20037;-44
2022/06/26 09:37:03;;;;;;;2.70;1.50;;;21.70;88.20;;;;;;5043214;28;20037;-46
2022/06/26 09:39:33;;;;;;;3.22;1.88;;;21.70;89.90;;;;;;5043086;28;20130;-45
2022/06/26 09:42:18;;;;;;;6.70;1.63;;;21.80;90.20;;;;;;5047846;28;20106;-45
2022/06/26 09:44:51;;;;;;;3.55;1.42;;;22.00;90.10;;;;;;5036331;28;20033;-46
2022/06/26 09:47:29;;;;;;;2.78;1.20;;;22.20;89.70;;;;;;5046537;28;20041;-47
2022/06/26 09:50:00;;;;;;;3.15;1.30;;;22.50;87.90;;;;;;5036324;28;20502;-48
2022/06/26 09:52:30;;;;;;;2.08;1.30;;;22.60;85.50;;;;;;5043483;28;20055;-45
2022/06/26 09:54:57;;;;;;;2.13;1.30;;;22.70;84.80;;;;;;5044008;28;20044;-44
2022/06/26 09:57:26;;;;;;;3.35;1.88;;;22.70;84.10;;;;;;5051781;28;20103;-44
2022/06/26 09:59:52;;;;;;;4.43;1.60;;;22.80;84.70;;;;;;5045674;28;20041;-44
2022/06/26 10:07:54;;;;;;;2.42;1.02;;;23.00;82.80;;;;;;5045323;28;20037;-46
2022/06/26 10:10:22;;;;;;;2.40;1.08;;;23.00;83.00;;;;;;5041011;28;20053;-46
2022/06/26 10:12:52;;;;;;;3.03;1.27;;;23.10;82.90;;;;;;5045425;28;20520;-46
2022/06/26 10:15:20;;;;;;;4.32;1.15;;;23.20;81.30;;;;;;5046145;28;20112;-46
2022/06/26 10:18:23;;;;;;;2.13;1.55;;;23.10;81.70;;;;;;5041870;28;20033;-46
2022/06/26 10:20:50;;;;;;;3.05;1.88;;;23.10;81.10;;;;;;5043312;28;20163;-51
2022/06/26 10:23:35;;;;;;;3.17;1.48;;;23.20;82.80;;;;;;5044937;28;20123;-47
2022/06/26 10:26:19;;;;;;;3.20;1.80;;;23.20;80.60;;;;;;5047554;28;20044;-45
2022/06/26 10:28:59;;;;;;;5.28;1.80;;;23.30;80.80;;;;;;5037554;28;20041;-49
2022/06/26 10:31:28;;;;;;;3.13;2.13;;;23.40;82.00;;;;;;5040081;28;20045;-49
2022/06/26 10:33:54;;;;;;;3.42;1.98;;;23.40;80.40;;;;;;5046766;28;20470;-47
2022/06/26 10:36:24;;;;;;;4.65;2.25;;;23.40;80.30;;;;;;5045119;28;20098;-45
2022/06/26 10:39:02;;;;;;;4.68;1.92;;;23.50;80.50;;;;;;5039163;28;20439;-44
2022/06/26 10:44:47;;;;;;;4.25;2.05;;;23.50;78.70;;;;;;5041970;28;20567;-48
2022/06/26 10:47:14;;;;;;;4.72;1.80;;;23.60;76.80;;;;;;5046674;28;20043;-49
2022/06/26 10:49:50;;;;;;;5.40;1.75;;;23.50;78.40;;;;;;5043183;28;20094;-46
2022/06/26 10:52:27;;;;;;;4.07;1.75;;;23.60;77.50;;;;;;5041621;28;20068;-44
2022/06/26 10:54:54;;;;;;;3.88;1.95;;;23.70;75.10;;;;;;5043178;28;20093;-45
2022/06/26 10:57:34;;;;;;;3.00;1.50;;;23.90;76.70;;;;;;5043787;28;20039;-48
2022/06/26 11:00:01;;;;;;;1.75;1.08;;;23.70;74.00;;;;;;5041374;28;20041;-44
2022/06/26 11:02:36;;;;;;;4.05;1.63;;;23.60;74.70;;;;;;5042054;28;20131;-49
2022/06/26 11:05:03;;;;;;;5.00;1.40;;;23.50;69.20;;;;;;5045783;28;20037;-47
2022/06/26 11:07:38;;;;;;;3.17;1.85;;;23.50;74.40;;;;;;5047038;28;20042;-45
2022/06/26 11:10:10;;;;;;;4.47;1.42;;;23.60;73.50;;;;;;5042059;28;20053;-46
2022/06/26 11:12:46;;;;;;;3.17;1.25;;;23.50;74.10;;;;;;5048211;28;20381;-49
2022/06/26 11:15:32;;;;;;;2.42;1.23;;;23.70;74.90;;;;;;5038255;28;20037;-49
2022/06/26 11:18:05;;;;;;;3.80;1.45;;;23.80;70.60;;;;;;5029031;28;20047;-45
2022/06/26 11:20:51;;;;;;;3.30;1.27;;;23.80;72.20;;;;;;5043994;28;20078;-46
2022/06/26 11:23:31;;;;;;;4.50;1.50;;;23.80;71.20;;;;;;5041958;28;20075;-50
2022/06/26 11:26:05;;;;;;;2.58;1.40;;;23.80;72.10;;;;;;5042806;28;20052;-48
2022/06/26 11:28:42;;;;;;;4.07;2.30;;;23.70;70.80;;;;;;5040559;28;20127;-48
2022/06/26 11:31:11;;;;;;;3.78;1.77;;;23.50;70.80;;;;;;5043543;28;20567;-47
2022/06/26 11:33:39;;;;;;;2.70;1.50;;;23.40;71.10;;;;;;5039852;28;20104;-48
2022/06/26 11:36:07;;;;;;;4.32;1.90;;;23.20;71.90;;;;;;5045691;28;20478;-50
2022/06/26 11:38:34;;;;;;;2.13;1.42;;;23.00;73.00;;;;;;5040332;28;20045;-50
2022/06/26 11:41:01;;;;;;;4.30;1.98;;;23.00;74.70;;;;;;5040654;28;20549;-50
2022/06/26 11:43:27;;;;;;;4.88;1.80;;;22.90;75.90;;;;;;5038419;28;20047;-52
2022/06/26 11:45:54;;;;;;;5.85;2.15;;;22.90;75.70;;;;;;5045568;28;20393;-50
2022/06/26 11:48:20;;;;;;;3.85;1.70;;;23.00;76.40;;;;;;5046717;28;20036;-49
2022/06/26 11:50:50;;;;;;;2.25;1.55;;;23.20;76.60;;;;;;5043347;28;20037;-45
2022/06/26 11:53:24;;;;;;;3.83;1.80;;;23.40;75.10;;;;;;5041168;28;20059;-50
2022/06/26 11:55:54;;;;;;;4.55;1.95;;;23.60;73.70;;;;;;5041705;28;20055;-49
2022/06/26 11:58:25;;;;;;;4.43;1.77;;;23.70;72.30;;;;;;5038979;28;20069;-46
2022/06/26 12:01:09;;;;;;;3.03;1.60;;;23.70;72.20;;;;;;5044436;28;20045;-51
2022/06/26 12:03:55;;;;;;;3.40;1.75;;;23.70;72.20;;;;;;5034089;28;20646;-48
2022/06/26 12:06:29;;;;;;;6.93;2.50;;;23.60;74.10;;;;;;5044995;28;21598;-47
2022/06/26 12:08:56;;;;;;;4.85;2.15;;;23.60;75.20;;;;;;5043517;28;20493;-50
2022/06/26 12:11:23;;;;;;;5.38;2.13;;;23.50;75.20;;;;;;5042249;28;20056;-47
2022/06/26 12:13:49;;;;;;;2.17;1.70;;;23.40;75.70;;;;;;5044727;28;20045;-50
2022/06/26 12:16:14;;;;;;;6.68;1.52;;;23.40;76.10;;;;;;5044272;28;20033;-51
2022/06/26 12:18:42;;;;;;;5.80;2.35;;;23.40;76.70;;;;;;5042300;28;20037;-49
2022/06/26 12:21:20;;;;;;;10.88;3.75;;;23.40;77.10;;;;;;5044388;28;20138;-48
2022/06/26 12:23:47;;;;;;;6.47;2.13;;;23.30;78.00;;;;;;5046081;28;20533;-49
2022/06/26 12:26:17;;;;;;;3.72;1.98;;;23.20;79.40;;;;;;5040995;28;20724;-50
2022/06/26 12:29:03;;;;;;;6.10;2.10;;;23.20;78.50;;;;;;5042008;28;20508;-51
2022/06/26 12:31:29;;;;;;;4.43;1.92;;;23.30;78.60;;;;;;5046341;28;20550;-47
2022/06/26 12:33:55;;;;;;;5.57;1.63;;;23.30;78.60;;;;;;5052861;28;20505;-48
2022/06/26 12:36:21;;;;;;;4.18;1.90;;;23.30;77.60;;;;;;5046435;28;20413;-48
2022/06/26 12:38:47;;;;;;;2.40;1.50;;;23.20;77.30;;;;;;5051002;28;20135;-45
2022/06/26 12:41:16;;;;;;;3.72;1.42;;;23.10;77.50;;;;;;5036709;28;20099;-50
2022/06/26 12:43:52;;;;;;;10.27;2.22;;;23.20;77.80;;;;;;5043381;28;20478;-51
2022/06/26 12:46:18;;;;;;;5.00;1.75;;;23.20;77.60;;;;;;5055912;22;20124;-85
2022/06/26 12:48:44;;;;;;;5.28;1.65;;;23.20;77.20;;;;;;5032621;28;20077;-83
2022/06/26 12:51:10;;;;;;;3.50;1.73;;;23.20;77.10;;;;;;5026177;28;20041;-82
2022/06/26 12:53:37;;;;;;;5.68;2.08;;;23.10;77.30;;;;;;5015424;28;20120;-83
2022/06/26 12:56:03;;;;;;;4.90;2.25;;;23.00;79.40;;;;;;5485714;22;20857;-85
2022/06/26 12:58:29;;;;;;;5.13;2.13;;;22.80;81.20;;;;;;5024271;28;20124;-84
2022/06/26 13:00:54;;;;;;;4.95;2.78;;;22.80;82.50;;;;;;5026375;28;20045;-84
2022/06/26 13:03:21;;;;;;;7.10;2.35;;;22.70;83.00;;;;;;5029312;28;20659;-83